Time;durP1;ratioP1;P1;durP2;ratioP2;P2;SDS_P1;SDS_P2;PMS_P1;PMS_P2;Temp;Humidity;BMP_temperature;BMP_pressure;BME280_temperature;BME280_humidity;BME280_pressure;Samples;Min_cycle;Max_cycle;Signal;HPM_P1;HPM_P2
2022/08/03 00:01:42;;;;;;;0.70;0.10;;;24.60;99.90;;;;;;4976670;28;20442;-75
2022/08/03 00:04:11;;;;;;;0.70;0.10;;;24.60;99.90;;;;;;4976710;28;20470;-75
2022/08/03 00:06:39;;;;;;;0.70;0.10;;;24.60;99.90;;;;;;4976710;28;20549;-74
2022/08/03 00:09:09;;;;;;;0.70;0.13;;;24.50;99.90;;;;;;4976709;28;20522;-75
2022/08/03 00:11:37;;;;;;;0.70;0.10;;;24.50;99.90;;;;;;4979355;28;20955;-75
2022/08/03 00:14:05;;;;;;;0.70;0.20;;;24.40;99.90;;;;;;4978324;28;20470;-74
2022/08/03 00:16:33;;;;;;;0.70;0.10;;;24.30;99.90;;;;;;4976992;28;20447;-74
2022/08/03 00:19:01;;;;;;;0.70;0.13;;;24.30;99.90;;;;;;4976837;28;20474;-75
2022/08/03 00:21:30;;;;;;;0.70;0.20;;;24.30;99.90;;;;;;4974079;28;20454;-74
2022/08/03 00:23:57;;;;;;;0.70;0.13;;;24.20;99.90;;;;;;4978397;28;20476;-75
2022/08/03 00:26:27;;;;;;;0.70;0.10;;;24.20;99.90;;;;;;4977606;28;20464;-75
2022/08/03 00:28:54;;;;;;;0.70;0.10;;;24.20;99.90;;;;;;4977584;28;20450;-75
2022/08/03 00:31:22;;;;;;;0.70;0.10;;;24.20;99.90;;;;;;4976477;28;20486;-74
2022/08/03 00:34:10;;;;;;;0.70;0.20;;;24.10;99.90;;;;;;4977613;28;20486;-75
2022/08/03 00:36:39;;;;;;;0.70;0.20;;;24.10;99.90;;;;;;4976349;28;20478;-75
2022/08/03 00:39:07;;;;;;;2.80;0.83;;;24.10;99.90;;;;;;4976909;28;20445;-75
2022/08/03 00:41:36;;;;;;;0.70;0.10;;;24.10;99.90;;;;;;4974044;28;20451;-75
2022/08/03 00:44:05;;;;;;;0.70;0.27;;;24.10;99.90;;;;;;4974645;28;20462;-75
2022/08/03 00:46:33;;;;;;;0.70;0.20;;;24.00;99.90;;;;;;4974564;28;20451;-75
2022/08/03 00:49:00;;;;;;;0.70;0.10;;;24.00;99.90;;;;;;4974418;28;20837;-75
2022/08/03 00:51:28;;;;;;;0.70;0.20;;;23.90;99.90;;;;;;4974752;28;20492;-75
2022/08/03 00:53:56;;;;;;;0.80;0.60;;;23.90;99.90;;;;;;4974487;28;20474;-75
2022/08/03 00:56:24;;;;;;;0.70;0.10;;;23.80;99.90;;;;;;4974235;28;20930;-74
2022/08/03 00:58:57;;;;;;;0.70;0.10;;;23.80;99.90;;;;;;4974446;28;20947;-74
2022/08/03 01:01:25;;;;;;;0.70;0.10;;;23.80;99.90;;;;;;4974591;28;20449;-76
2022/08/03 01:03:59;;;;;;;0.70;0.20;;;23.80;99.90;;;;;;4975134;28;20464;-75
2022/08/03 01:06:40;;;;;;;0.70;0.10;;;23.80;99.90;;;;;;4974525;28;20453;-75
2022/08/03 01:09:14;;;;;;;0.70;0.20;;;23.80;99.90;;;;;;4974571;28;20528;-75
2022/08/03 01:11:49;;;;;;;1.10;0.37;;;23.80;99.90;;;;;;4974990;28;20474;-75
2022/08/03 01:14:34;;;;;;;0.70;0.20;;;23.80;99.90;;;;;;4974893;28;20542;-76
2022/08/03 01:17:10;;;;;;;0.70;0.20;;;23.80;99.90;;;;;;4974753;28;20477;-75
2022/08/03 01:19:46;;;;;;;0.70;0.20;;;23.80;99.90;;;;;;4974685;28;20480;-74
2022/08/03 01:22:40;;;;;;;0.70;0.13;;;23.70;99.90;;;;;;4974460;28;20930;-74
2022/08/03 01:25:17;;;;;;;0.70;0.20;;;23.60;99.90;;;;;;4967139;28;20454;-75
2022/08/03 01:27:55;;;;;;;0.70;0.20;;;23.50;99.90;;;;;;4973987;28;20847;-74
2022/08/03 01:30:27;;;;;;;0.70;0.13;;;23.50;99.90;;;;;;4974056;28;20484;-75
2022/08/03 01:33:00;;;;;;;0.70;0.20;;;23.40;99.90;;;;;;4973629;28;20568;-75
2022/08/03 01:35:35;;;;;;;0.70;0.20;;;23.30;99.90;;;;;;4973940;28;20799;-75
2022/08/03 01:38:11;;;;;;;0.70;0.20;;;23.30;99.90;;;;;;4973372;28;20438;-74
2022/08/03 01:40:41;;;;;;;0.70;0.20;;;23.30;99.90;;;;;;4973616;28;20454;-75
2022/08/03 01:43:12;;;;;;;0.70;0.20;;;23.30;99.90;;;;;;4973537;28;20466;-75
2022/08/03 01:45:43;;;;;;;0.70;0.10;;;23.20;99.90;;;;;;4973487;28;20958;-74
2022/08/03 01:48:15;;;;;;;0.70;0.10;;;23.20;99.90;;;;;;4973442;28;20450;-75
2022/08/03 01:50:44;;;;;;;0.70;0.17;;;23.20;99.90;;;;;;4973459;28;21004;-75
2022/08/03 01:53:15;;;;;;;0.70;0.20;;;23.20;99.90;;;;;;4975228;28;20970;-75
2022/08/03 01:55:44;;;;;;;0.70;0.10;;;23.20;99.90;;;;;;4975549;28;20450;-75
2022/08/03 01:58:13;;;;;;;0.70;0.10;;;23.10;99.90;;;;;;4976388;28;20454;-75
2022/08/03 02:00:43;;;;;;;0.70;0.20;;;23.10;99.90;;;;;;4974117;28;20448;-75
2022/08/03 02:03:13;;;;;;;0.70;0.10;;;23.10;99.90;;;;;;4974265;28;20521;-75
2022/08/03 02:05:43;;;;;;;0.70;0.17;;;23.10;99.90;;;;;;4955704;28;20806;-75
2022/08/03 02:08:13;;;;;;;0.70;0.10;;;23.10;99.90;;;;;;4956463;28;20461;-75
2022/08/03 02:10:43;;;;;;;0.70;0.10;;;23.00;99.90;;;;;;4955162;28;20485;-75
2022/08/03 02:13:12;;;;;;;0.70;0.10;;;23.00;99.90;;;;;;4954687;28;20467;-75
2022/08/03 02:15:43;;;;;;;0.70;0.20;;;23.00;99.90;;;;;;4954557;28;20979;-76
2022/08/03 02:18:12;;;;;;;0.70;0.20;;;23.00;99.90;;;;;;4963953;28;20458;-75
2022/08/03 02:20:43;;;;;;;0.70;0.17;;;23.00;99.90;;;;;;4973932;28;20446;-75
2022/08/03 02:23:11;;;;;;;0.70;0.13;;;23.00;99.90;;;;;;4974548;28;20671;-76
2022/08/03 02:25:44;;;;;;;0.70;0.20;;;22.90;99.90;;;;;;4975277;28;20450;-75
2022/08/03 02:28:17;;;;;;;0.70;0.20;;;22.90;99.90;;;;;;4974575;28;20449;-74
2022/08/03 02:30:52;;;;;;;0.70;0.10;;;22.90;99.90;;;;;;4975010;28;20572;-75
2022/08/03 02:33:24;;;;;;;0.70;0.10;;;22.90;99.90;;;;;;4955352;28;20481;-75
2022/08/03 02:35:53;;;;;;;0.70;0.20;;;22.90;99.90;;;;;;4955409;28;20823;-75
2022/08/03 02:38:26;;;;;;;0.70;0.17;;;22.90;99.90;;;;;;4954816;28;20456;-75
2022/08/03 02:40:56;;;;;;;0.70;0.20;;;22.80;99.90;;;;;;4955171;28;20439;-75
2022/08/03 02:43:25;;;;;;;0.70;0.20;;;22.80;99.90;;;;;;4954020;28;20471;-74
2022/08/03 02:45:55;;;;;;;0.70;0.10;;;;;;;;;;4961695;28;20896;-76
2022/08/03 02:48:26;;;;;;;0.70;0.20;;;22.60;99.90;;;;;;4972715;28;20457;-75
2022/08/03 02:50:57;;;;;;;0.70;0.10;;;22.60;99.90;;;;;;4973334;28;20470;-75
2022/08/03 02:53:27;;;;;;;0.70;0.10;;;22.50;99.90;;;;;;4973676;28;20477;-75
2022/08/03 02:55:57;;;;;;;0.70;0.10;;;22.50;99.90;;;;;;4976984;28;20822;-75
2022/08/03 02:58:25;;;;;;;0.90;0.40;;;22.50;99.90;;;;;;4976679;28;20450;-75
2022/08/03 03:00:55;;;;;;;0.70;0.10;;;22.50;99.90;;;;;;4976804;28;20477;-75
2022/08/03 03:03:24;;;;;;;0.70;0.20;;;22.50;99.90;;;;;;4977492;28;20462;-74
2022/08/03 03:05:57;;;;;;;0.70;0.20;;;22.50;99.90;;;;;;4976750;28;20812;-75
2022/08/03 03:08:27;;;;;;;0.70;0.10;;;22.40;99.90;;;;;;4976717;28;20450;-75
2022/08/03 03:10:58;;;;;;;0.70;0.20;;;22.40;99.90;;;;;;4976649;28;20478;-75
2022/08/03 03:13:27;;;;;;;0.70;0.10;;;22.40;99.90;;;;;;4975875;28;20480;-75
2022/08/03 03:16:00;;;;;;;0.70;0.20;;;22.40;99.90;;;;;;4975784;28;20457;-75
2022/08/03 03:18:28;;;;;;;0.70;0.20;;;22.40;99.90;;;;;;4975913;28;20481;-74
2022/08/03 03:20:58;;;;;;;0.70;0.10;;;22.30;99.90;;;;;;4976359;28;20484;-75
2022/08/03 03:23:28;;;;;;;0.70;0.10;;;22.30;99.90;;;;;;4976401;28;20467;-76
2022/08/03 03:25:57;;;;;;;0.70;0.20;;;22.40;99.90;;;;;;4976493;28;20454;-75
2022/08/03 03:28:26;;;;;;;0.70;0.20;;;22.40;99.90;;;;;;4975624;28;20965;-74
2022/08/03 03:30:54;;;;;;;0.70;0.20;;;;;;;;;;4976064;28;20454;-73
2022/08/03 03:33:24;;;;;;;0.70;0.10;;;22.40;99.90;;;;;;4975579;28;20494;-73
2022/08/03 03:35:55;;;;;;;0.70;0.20;;;22.40;99.90;;;;;;4975502;28;20939;-75
2022/08/03 03:38:23;;;;;;;0.70;0.10;;;22.40;99.90;;;;;;4975354;28;20446;-75
2022/08/03 03:40:51;;;;;;;0.70;0.20;;;22.40;99.90;;;;;;4975408;28;20449;-75
2022/08/03 03:43:20;;;;;;;0.70;0.20;;;;;;;;;;4975690;28;20565;-74
2022/08/03 03:45:48;;;;;;;0.70;0.20;;;22.40;99.90;;;;;;4975467;28;20443;-73
2022/08/03 03:48:16;;;;;;;0.70;0.10;;;22.40;99.90;;;;;;4975646;28;20449;-74
2022/08/03 03:50:46;;;;;;;0.70;0.13;;;22.30;99.90;;;;;;4975623;28;20556;-75
2022/08/03 03:53:14;;;;;;;0.70;0.10;;;22.30;99.90;;;;;;4975205;28;20493;-73
2022/08/03 03:55:43;;;;;;;0.70;0.10;;;;;;;;;;4975183;28;20820;-74
2022/08/03 03:58:29;;;;;;;0.70;0.10;;;22.30;99.90;;;;;;4975118;28;20446;-74
2022/08/03 04:00:57;;;;;;;0.70;0.20;;;22.30;99.90;;;;;;4975385;28;20445;-74
2022/08/03 04:03:25;;;;;;;0.70;0.20;;;22.20;99.90;;;;;;4975483;28;20532;-74
2022/08/03 04:11:45;;;;;;;0.70;0.10;;;22.30;99.90;;;;;;4975267;28;20482;-74
2022/08/03 04:14:17;;;;;;;0.70;0.10;;;22.20;99.90;;;;;;4974924;28;20462;-74
2022/08/03 04:16:48;;;;;;;0.70;0.10;;;22.20;99.90;;;;;;4974811;28;20513;-74
2022/08/03 04:19:22;;;;;;;0.70;0.20;;;22.30;99.90;;;;;;4974923;28;20446;-74
2022/08/03 04:21:55;;;;;;;0.70;0.20;;;22.30;99.90;;;;;;4974960;28;20990;-74
2022/08/03 04:24:27;;;;;;;0.70;0.30;;;22.30;99.90;;;;;;4974572;28;20464;-74
2022/08/03 04:26:57;;;;;;;0.70;0.20;;;22.30;99.90;;;;;;4974845;28;20454;-74
2022/08/03 04:29:26;;;;;;;0.70;0.20;;;22.30;99.90;;;;;;4974742;28;20442;-74
2022/08/03 04:31:55;;;;;;;0.70;0.10;;;22.30;99.90;;;;;;4974682;28;21121;-74
2022/08/03 04:34:23;;;;;;;0.70;0.20;;;22.30;99.90;;;;;;4974642;28;20458;-74
2022/08/03 04:36:58;;;;;;;0.80;0.30;;;22.30;99.90;;;;;;4974436;28;20450;-75
2022/08/03 04:39:29;;;;;;;0.70;0.17;;;22.30;99.90;;;;;;4955452;28;20811;-74
2022/08/03 04:42:02;;;;;;;0.70;0.10;;;22.30;99.90;;;;;;4955283;28;20574;-73
2022/08/03 04:44:39;;;;;;;0.70;0.10;;;22.30;99.90;;;;;;4959853;28;20830;-73
2022/08/03 04:47:07;;;;;;;0.70;0.10;;;22.30;99.90;;;;;;4974025;28;20813;-73
2022/08/03 04:49:36;;;;;;;0.70;0.10;;;22.30;99.90;;;;;;4972241;28;20450;-73
2022/08/03 04:52:08;;;;;;;0.70;0.10;;;22.30;99.90;;;;;;4974018;28;20470;-75
2022/08/03 04:54:40;;;;;;;0.70;0.10;;;22.30;99.90;;;;;;4973224;28;20450;-74
2022/08/03 04:57:08;;;;;;;0.70;0.17;;;22.40;99.90;;;;;;4973361;28;20456;-74
2022/08/03 04:59:36;;;;;;;0.70;0.10;;;22.40;99.90;;;;;;4972537;28;20458;-74
2022/08/03 05:02:07;;;;;;;0.90;0.20;;;22.40;99.90;;;;;;4971916;28;20465;-76
2022/08/03 05:04:36;;;;;;;0.70;0.10;;;22.40;99.90;;;;;;4972175;28;20530;-75
2022/08/03 05:07:06;;;;;;;0.70;0.17;;;22.50;99.90;;;;;;4972014;28;20450;-75
2022/08/03 05:09:39;;;;;;;0.70;0.10;;;;;;;;;;4971949;28;20448;-75
2022/08/03 05:12:19;;;;;;;0.70;0.10;;;22.50;99.90;;;;;;4971922;28;20501;-75
2022/08/03 05:14:47;;;;;;;0.70;0.10;;;22.50;99.90;;;;;;4973042;28;20939;-74
2022/08/03 05:17:14;;;;;;;0.70;0.10;;;22.50;99.90;;;;;;4973256;28;20446;-73
2022/08/03 05:19:42;;;;;;;0.70;0.20;;;22.60;99.90;;;;;;4973499;28;21165;-73
2022/08/03 05:22:13;;;;;;;0.80;0.20;;;22.60;99.90;;;;;;4970622;28;20529;-74
2022/08/03 05:24:41;;;;;;;0.70;0.10;;;22.60;99.90;;;;;;4959706;28;20455;-74
2022/08/03 05:27:09;;;;;;;0.80;0.23;;;22.60;99.90;;;;;;4959483;28;20450;-73
2022/08/03 05:29:37;;;;;;;0.70;0.10;;;22.60;99.90;;;;;;4974821;28;20439;-73
2022/08/03 05:32:06;;;;;;;0.70;0.10;;;;;;;;;;4977024;28;20454;-77
2022/08/03 05:34:35;;;;;;;0.70;0.20;;;22.60;99.90;;;;;;4977691;28;20546;-77
2022/08/03 05:37:03;;;;;;;0.70;0.10;;;22.70;99.90;;;;;;4976710;28;20508;-74
2022/08/03 05:39:33;;;;;;;0.70;0.10;;;22.70;99.90;;;;;;4973258;28;20450;-74
2022/08/03 05:42:02;;;;;;;2.53;2.33;;;22.70;99.90;;;;;;4973639;28;20482;-76
2022/08/03 05:44:30;;;;;;;0.70;0.10;;;22.60;99.90;;;;;;4974405;28;20831;-76
2022/08/03 05:46:58;;;;;;;0.70;0.10;;;22.60;99.90;;;;;;4973934;28;20462;-75
2022/08/03 05:49:26;;;;;;;0.70;0.20;;;22.60;99.90;;;;;;4973669;28;20461;-75
2022/08/03 05:51:54;;;;;;;0.70;0.10;;;22.60;99.90;;;;;;4966605;28;20534;-75
2022/08/03 05:54:46;;;;;;;1.93;1.60;;;22.60;99.90;;;;;;4976582;28;20438;-76
2022/08/03 05:57:24;;;;;;;0.70;0.13;;;22.80;99.90;;;;;;4963574;28;20451;-76
2022/08/03 05:59:52;;;;;;;0.70;0.20;;;22.90;99.90;;;;;;4964191;28;20952;-76
2022/08/03 06:02:26;;;;;;;0.70;0.20;;;23.00;99.90;;;;;;4960918;28;20553;-75
2022/08/03 06:04:54;;;;;;;0.70;0.10;;;23.00;99.90;;;;;;4964617;28;20434;-76
2022/08/03 06:07:22;;;;;;;0.70;0.10;;;23.00;99.90;;;;;;4970256;28;20448;-76
2022/08/03 06:09:51;;;;;;;0.70;0.20;;;23.20;99.90;;;;;;4968230;28;20472;-75
2022/08/03 06:12:40;;;;;;;0.70;0.13;;;23.20;99.90;;;;;;4973259;28;20994;-76
2022/08/03 06:15:09;;;;;;;0.70;0.10;;;23.20;99.90;;;;;;4974262;28;20446;-77
2022/08/03 06:17:46;;;;;;;0.70;0.10;;;23.30;99.90;;;;;;4973991;28;20456;-77
2022/08/03 06:20:15;;;;;;;0.70;0.13;;;23.30;99.90;;;;;;4974064;28;20434;-76
2022/08/03 06:22:43;;;;;;;0.70;0.20;;;23.30;99.90;;;;;;4973349;28;20474;-76
2022/08/03 06:25:27;;;;;;;0.70;0.20;;;23.30;99.90;;;;;;4973985;28;20521;-76
2022/08/03 06:27:55;;;;;;;0.70;0.20;;;23.40;99.90;;;;;;4975519;28;20523;-76
2022/08/03 06:30:23;;;;;;;0.70;0.10;;;23.40;99.90;;;;;;4979068;28;21049;-77
2022/08/03 06:32:51;;;;;;;0.70;0.20;;;23.50;99.90;;;;;;4979872;28;20485;-76
2022/08/03 06:35:19;;;;;;;0.70;0.10;;;23.50;99.90;;;;;;4979150;28;20458;-77
2022/08/03 06:37:50;;;;;;;0.70;0.10;;;23.60;99.90;;;;;;4977966;28;20461;-77
2022/08/03 06:40:20;;;;;;;0.70;0.17;;;23.60;99.90;;;;;;4978060;28;20549;-76
2022/08/03 06:42:53;;;;;;;0.70;0.10;;;23.60;99.90;;;;;;4979318;28;20473;-76
2022/08/03 06:45:21;;;;;;;0.70;0.10;;;23.60;99.90;;;;;;4960877;28;20557;-76
2022/08/03 06:48:00;;;;;;;0.70;0.20;;;23.70;99.90;;;;;;4975008;28;20461;-77
2022/08/03 06:50:29;;;;;;;0.70;0.13;;;23.90;99.90;;;;;;4979701;28;20441;-76
2022/08/03 06:52:57;;;;;;;0.70;0.20;;;23.90;99.90;;;;;;4977050;28;20482;-77
2022/08/03 06:55:25;;;;;;;0.70;0.10;;;24.00;99.90;;;;;;4976960;28;20889;-76
2022/08/03 06:57:54;;;;;;;0.70;0.20;;;24.10;99.90;;;;;;4977080;28;20541;-77
2022/08/03 07:00:30;;;;;;;0.70;0.20;;;24.20;99.90;;;;;;4979443;28;20489;-77
2022/08/03 07:02:58;;;;;;;0.70;0.20;;;24.20;99.90;;;;;;4979422;28;20473;-77
2022/08/03 07:05:27;;;;;;;0.70;0.10;;;24.30;99.90;;;;;;4978112;28;20529;-76
2022/08/03 07:07:56;;;;;;;0.70;0.10;;;24.40;99.90;;;;;;4976942;28;20817;-76
2022/08/03 07:10:24;;;;;;;0.70;0.20;;;;;;;;;;4977074;28;20541;-77
2022/08/03 07:12:53;;;;;;;0.70;0.20;;;24.20;99.90;;;;;;4976920;28;20478;-76
2022/08/03 07:15:23;;;;;;;1.07;0.90;;;24.50;99.90;;;;;;4977209;28;20500;-76
2022/08/03 07:18:11;;;;;;;0.70;0.10;;;24.60;99.90;;;;;;4976651;28;20951;-76
2022/08/03 07:20:39;;;;;;;0.70;0.20;;;24.60;99.90;;;;;;4978105;28;20453;-78
2022/08/03 07:23:08;;;;;;;0.80;0.30;;;24.70;99.90;;;;;;4976651;28;20529;-78
2022/08/03 07:25:38;;;;;;;0.80;0.20;;;24.70;99.90;;;;;;4976220;28;20462;-76
2022/08/03 07:28:08;;;;;;;0.70;0.20;;;24.80;99.90;;;;;;4977082;28;20442;-76
2022/08/03 07:30:35;;;;;;;0.70;0.10;;;24.80;99.90;;;;;;4976720;28;20449;-76
2022/08/03 07:33:03;;;;;;;1.83;1.73;;;24.90;99.90;;;;;;4976785;28;20469;-76
2022/08/03 07:35:31;;;;;;;0.70;0.10;;;24.90;99.90;;;;;;4976305;28;20450;-77
2022/08/03 07:37:59;;;;;;;0.70;0.20;;;25.00;99.90;;;;;;4976329;28;20998;-77
2022/08/03 07:40:27;;;;;;;0.70;0.10;;;25.10;99.90;;;;;;4975881;28;20453;-77
2022/08/03 07:42:59;;;;;;;0.70;0.10;;;25.20;99.90;;;;;;4976475;28;20470;-76
2022/08/03 07:45:28;;;;;;;0.70;0.13;;;25.20;99.90;;;;;;4976135;28;20856;-77
2022/08/03 07:47:56;;;;;;;0.70;0.10;;;25.30;99.90;;;;;;4975898;28;20468;-77
2022/08/03 07:50:25;;;;;;;0.70;0.20;;;25.30;99.90;;;;;;4976746;28;20651;-78
2022/08/03 07:52:54;;;;;;;0.70;0.10;;;25.50;99.90;;;;;;4976341;28;20490;-77
2022/08/03 07:55:24;;;;;;;0.70;0.10;;;25.50;99.90;;;;;;4976435;28;20489;-77
2022/08/03 07:58:08;;;;;;;0.70;0.13;;;25.50;99.90;;;;;;4976087;28;20449;-77
2022/08/03 08:00:38;;;;;;;0.70;0.10;;;25.60;99.90;;;;;;4971716;28;20465;-76
2022/08/03 08:03:06;;;;;;;0.70;0.10;;;25.60;99.90;;;;;;4975913;28;20469;-75
2022/08/03 08:05:34;;;;;;;0.70;0.10;;;25.70;99.90;;;;;;4976634;28;20438;-77
2022/08/03 08:08:03;;;;;;;0.70;0.10;;;25.80;99.90;;;;;;4975046;28;20537;-75
2022/08/03 08:10:31;;;;;;;0.70;0.10;;;25.90;99.90;;;;;;4974508;28;20546;-76
2022/08/03 08:12:59;;;;;;;0.80;0.20;;;26.00;99.90;;;;;;4973513;28;20473;-75
2022/08/03 08:15:27;;;;;;;0.70;0.10;;;26.10;99.90;;;;;;4974575;28;20564;-77
2022/08/03 08:17:59;;;;;;;0.70;0.10;;;26.10;99.90;;;;;;4974950;28;20446;-77
2022/08/03 08:20:29;;;;;;;0.70;0.10;;;26.20;99.90;;;;;;4975444;28;21057;-75
2022/08/03 08:22:59;;;;;;;0.70;0.17;;;;;;;;;;4975223;28;20967;-75
2022/08/03 08:25:29;;;;;;;0.70;0.20;;;26.30;99.90;;;;;;4974800;28;20442;-75
2022/08/03 08:28:00;;;;;;;0.70;0.10;;;26.40;99.90;;;;;;4976859;28;20465;-78
2022/08/03 08:30:48;;;;;;;0.70;0.20;;;26.40;99.90;;;;;;4976346;28;20442;-78
2022/08/03 08:33:17;;;;;;;0.70;0.10;;;26.50;99.90;;;;;;4975834;28;20478;-78
2022/08/03 08:35:52;;;;;;;0.70;0.10;;;26.60;99.90;;;;;;4975596;28;20515;-76
2022/08/03 08:38:20;;;;;;;0.70;0.17;;;26.60;99.90;;;;;;4974247;28;20456;-77
2022/08/03 08:40:48;;;;;;;0.70;0.20;;;26.70;99.90;;;;;;4974104;28;20457;-77
2022/08/03 08:43:16;;;;;;;0.70;0.10;;;26.80;99.90;;;;;;4975244;28;20466;-77
2022/08/03 08:45:45;;;;;;;0.70;0.10;;;26.90;99.90;;;;;;4975841;28;20442;-76
2022/08/03 08:48:14;;;;;;;0.70;0.13;;;26.90;99.90;;;;;;4974441;28;20454;-77
2022/08/03 08:50:45;;;;;;;0.70;0.10;;;26.90;99.90;;;;;;4958514;28;20455;-78
2022/08/03 08:53:13;;;;;;;0.80;0.40;;;27.00;99.90;;;;;;4957072;28;20474;-76
2022/08/03 08:55:46;;;;;;;0.70;0.20;;;27.10;99.90;;;;;;4963963;28;20542;-77
2022/08/03 08:58:29;;;;;;;0.70;0.20;;;27.20;99.90;;;;;;4974993;28;20453;-75
2022/08/03 09:00:57;;;;;;;0.70;0.10;;;27.20;99.90;;;;;;4974171;28;20454;-76
2022/08/03 09:03:26;;;;;;;0.70;0.10;;;27.30;99.90;;;;;;4974449;28;20469;-76
2022/08/03 09:06:00;;;;;;;0.70;0.10;;;27.40;99.90;;;;;;4974597;28;20457;-77
2022/08/03 09:08:29;;;;;;;0.70;0.20;;;27.60;99.90;;;;;;4975078;28;20450;-77
2022/08/03 09:10:57;;;;;;;4.33;3.90;;;27.60;99.90;;;;;;4975893;28;20454;-77
2022/08/03 09:13:25;;;;;;;0.70;0.10;;;27.60;99.90;;;;;;4975201;28;20487;-77
2022/08/03 09:16:09;;;;;;;0.80;0.30;;;27.70;99.90;;;;;;4974237;28;21028;-77
2022/08/03 09:18:37;;;;;;;0.70;0.10;;;27.80;99.90;;;;;;4974828;28;20453;-77
2022/08/03 09:21:22;;;;;;;0.80;0.30;;;27.80;99.90;;;;;;4973933;28;20453;-76
2022/08/03 09:24:01;;;;;;;0.70;0.10;;;28.00;99.90;;;;;;4974479;28;20499;-77
2022/08/03 09:26:33;;;;;;;0.70;0.10;;;28.00;99.90;;;;;;4973916;28;20470;-77
2022/08/03 09:29:03;;;;;;;0.70;0.10;;;28.10;99.90;;;;;;4974115;28;20447;-76
2022/08/03 09:31:41;;;;;;;0.70;0.13;;;28.30;99.90;;;;;;5014462;23;20905;-71
2022/08/03 09:34:11;;;;;;;0.70;0.20;;;28.30;99.90;;;;;;5012402;28;20884;-71
2022/08/03 09:36:43;;;;;;;0.70;0.20;;;28.40;99.90;;;;;;5012409;28;20539;-71
2022/08/03 09:39:13;;;;;;;0.70;0.20;;;28.50;99.90;;;;;;4999174;28;20602;-71
2022/08/03 09:41:42;;;;;;;0.70;0.10;;;28.60;99.90;;;;;;4977849;28;20480;-72
2022/08/03 09:44:11;;;;;;;0.70;0.20;;;;;;;;;;4973792;28;21021;-75
2022/08/03 09:46:55;;;;;;;0.70;0.10;;;28.70;99.90;;;;;;4975781;28;20468;-77
2022/08/03 09:49:29;;;;;;;0.70;0.20;;;28.80;99.90;;;;;;4976314;28;20458;-77
2022/08/03 09:52:01;;;;;;;0.70;0.20;;;;;;;;;;4980892;28;20500;-77
2022/08/03 09:54:51;;;;;;;0.80;0.40;;;;;;;;;;4991967;28;20469;-76
2022/08/03 09:57:23;;;;;;;0.70;0.20;;;;;;;;;;4984799;28;20452;-76
2022/08/03 09:59:52;;;;;;;1.10;0.23;;;29.20;99.90;;;;;;4991935;28;20443;-77
2022/08/03 10:02:34;;;;;;;0.70;0.10;;;;;;;;;;4984266;28;20442;-77
2022/08/03 10:05:03;;;;;;;0.70;0.20;;;;;;;;;;4977845;28;20440;-77
2022/08/03 10:07:42;;;;;;;0.70;0.10;;;29.30;99.90;;;;;;4983079;28;20441;-76
2022/08/03 10:10:13;;;;;;;0.70;0.20;;;;;;;;;;4980819;28;20469;-78
2022/08/03 10:12:58;;;;;;;0.70;0.10;;;;;;;;;;4985646;28;20440;-76
2022/08/03 10:15:27;;;;;;;0.70;0.20;;;;;;;;;;4983472;28;20504;-76
2022/08/03 10:18:15;;;;;;;0.80;0.47;;;;;;;;;;4985409;28;20516;-76
2022/08/03 10:20:44;;;;;;;0.70;0.20;;;;;;;;;;4985617;28;20475;-76
2022/08/03 10:23:16;;;;;;;0.70;0.20;;;29.70;99.90;;;;;;4984239;28;20880;-76
2022/08/03 10:25:47;;;;;;;0.70;0.20;;;29.80;99.90;;;;;;4980777;28;20500;-76
2022/08/03 10:28:19;;;;;;;1.10;0.53;;;29.90;99.90;;;;;;4983299;28;20457;-78
2022/08/03 10:30:50;;;;;;;0.70;0.10;;;30.00;99.90;;;;;;4986477;28;20491;-76
2022/08/03 10:33:20;;;;;;;0.70;0.10;;;30.00;99.90;;;;;;4982645;28;20445;-76
2022/08/03 10:36:09;;;;;;;0.70;0.13;;;30.10;99.90;;;;;;4983411;28;20513;-77
2022/08/03 10:38:41;;;;;;;0.70;0.10;;;;;;;;;;4985361;28;20439;-76
2022/08/03 10:41:10;;;;;;;2.87;2.73;;;30.40;99.90;;;;;;4982035;28;20482;-75
2022/08/03 10:43:43;;;;;;;0.70;0.20;;;;;;;;;;4988417;28;20465;-76
2022/08/03 10:46:11;;;;;;;0.70;0.20;;;30.50;99.90;;;;;;4975093;28;20505;-77
2022/08/03 10:48:40;;;;;;;0.70;0.20;;;;;;;;;;4974891;28;21006;-77
2022/08/03 10:51:08;;;;;;;0.80;0.47;;;;;;;;;;4974563;28;20477;-77
2022/08/03 10:53:41;;;;;;;0.70;0.20;;;30.70;99.90;;;;;;4979240;28;20941;-76
2022/08/03 11:00:04;;;;;;;0.70;0.20;;;31.00;99.90;;;;;;4974871;28;20552;-76
2022/08/03 11:03:10;;;;;;;0.70;0.20;;;31.00;99.90;;;;;;4974402;28;20480;-76
2022/08/03 11:05:41;;;;;;;0.70;0.20;;;31.00;99.90;;;;;;4980561;28;20448;-76
2022/08/03 11:08:29;;;;;;;0.80;0.30;;;;;;;;;;4993634;28;20445;-76
2022/08/03 11:11:01;;;;;;;0.70;0.20;;;31.20;99.90;;;;;;4993271;28;20527;-77
2022/08/03 11:13:32;;;;;;;0.70;0.10;;;;;;;;;;4993219;28;20446;-76
2022/08/03 11:16:18;;;;;;;0.70;0.20;;;31.30;99.90;;;;;;4996662;28;20513;-76
2022/08/03 11:18:56;;;;;;;0.70;0.20;;;31.40;99.90;;;;;;4997318;28;20449;-76
2022/08/03 11:21:52;;;;;;;0.70;0.20;;;31.40;99.90;;;;;;4996903;28;20488;-77
2022/08/03 11:24:57;;;;;;;1.27;0.30;;;31.50;99.90;;;;;;4982822;28;20445;-75
2022/08/03 11:27:28;;;;;;;0.70;0.20;;;;;;;;;;4976902;28;20557;-76
2022/08/03 11:29:58;;;;;;;1.87;0.50;;;31.60;99.90;;;;;;4995904;28;20441;-76
2022/08/03 11:32:57;;;;;;;0.70;0.20;;;31.60;99.90;;;;;;4979089;28;20446;-76
2022/08/03 11:35:27;;;;;;;0.87;0.57;;;31.60;99.90;;;;;;4976377;28;20568;-76
2022/08/03 11:38:06;;;;;;;0.70;0.17;;;;;;;;;;4976054;28;20495;-75
2022/08/03 11:40:41;;;;;;;0.70;0.20;;;31.50;99.90;;;;;;4976457;28;20480;-76
2022/08/03 11:43:44;;;;;;;0.70;0.20;;;31.50;99.90;;;;;;4986341;28;20449;-75
2022/08/03 11:46:16;;;;;;;1.33;1.17;;;31.50;99.90;;;;;;4995224;28;20447;-75
2022/08/03 11:49:05;;;;;;;0.70;0.30;;;31.50;99.90;;;;;;4995435;28;20449;-75
2022/08/03 11:51:39;;;;;;;0.70;0.20;;;31.40;99.90;;;;;;4995373;28;20491;-75
2022/08/03 11:54:07;;;;;;;0.70;0.20;;;;;;;;;;4995251;28;20445;-75
2022/08/03 11:56:45;;;;;;;0.70;0.20;;;31.50;99.90;;;;;;4994793;28;20484;-76
2022/08/03 11:59:16;;;;;;;0.70;0.10;;;31.70;99.90;;;;;;4995707;28;20873;-75
2022/08/03 12:01:49;;;;;;;0.70;0.20;;;31.80;99.90;;;;;;4975982;28;20994;-76
2022/08/03 12:04:17;;;;;;;0.70;0.20;;;31.90;99.90;;;;;;4975822;28;20446;-76
2022/08/03 12:06:59;;;;;;;0.70;0.10;;;32.00;99.90;;;;;;4975867;28;20961;-76
2022/08/03 12:09:26;;;;;;;0.70;0.10;;;32.00;99.90;;;;;;4976090;28;20939;-76
2022/08/03 12:11:55;;;;;;;0.80;0.47;;;32.10;99.90;;;;;;4982266;28;20473;-76
2022/08/03 12:14:29;;;;;;;0.80;0.40;;;32.40;99.90;;;;;;4995406;28;20480;-76
2022/08/03 12:17:17;;;;;;;0.70;0.20;;;32.40;99.90;;;;;;4994470;28;20473;-76
2022/08/03 12:19:45;;;;;;;0.70;0.20;;;32.50;99.90;;;;;;4994236;28;20475;-76
2022/08/03 12:22:14;;;;;;;1.40;1.30;;;32.50;99.90;;;;;;4994772;28;20453;-76
2022/08/03 12:24:43;;;;;;;0.70;0.10;;;32.50;99.90;;;;;;4993956;28;20457;-76
2022/08/03 12:27:23;;;;;;;0.70;0.20;;;32.50;99.90;;;;;;4993731;28;20452;-76
2022/08/03 12:29:54;;;;;;;0.70;0.20;;;32.70;99.90;;;;;;4992404;28;20453;-76
2022/08/03 12:32:26;;;;;;;0.70;0.10;;;32.60;99.90;;;;;;4995062;28;20460;-76
2022/08/03 12:34:58;;;;;;;0.70;0.20;;;32.50;99.90;;;;;;4994527;28;20441;-76
2022/08/03 12:37:27;;;;;;;0.70;0.20;;;32.50;99.90;;;;;;4994612;28;20535;-76
2022/08/03 12:39:58;;;;;;;0.70;0.20;;;32.50;99.90;;;;;;4994708;28;20457;-77
2022/08/03 12:42:31;;;;;;;0.70;0.20;;;32.60;99.90;;;;;;4975283;28;20861;-77
2022/08/03 12:45:17;;;;;;;0.70;0.20;;;32.60;99.90;;;;;;4985559;28;20445;-77
2022/08/03 12:47:53;;;;;;;0.70;0.20;;;32.70;99.90;;;;;;4994585;28;20446;-77
2022/08/03 12:50:25;;;;;;;0.90;0.30;;;32.80;99.90;;;;;;4994878;28;20471;-76
2022/08/03 12:52:54;;;;;;;0.70;0.10;;;32.90;99.90;;;;;;4993973;28;20449;-77
2022/08/03 12:55:23;;;;;;;0.70;0.17;;;32.90;99.90;;;;;;4994589;28;20447;-76
2022/08/03 12:57:51;;;;;;;0.70;0.20;;;32.90;99.90;;;;;;4994641;28;20552;-78
2022/08/03 13:00:21;;;;;;;0.70;0.20;;;32.90;99.90;;;;;;4992731;28;20465;-76
2022/08/03 13:03:02;;;;;;;0.80;0.50;;;32.90;99.90;;;;;;4974938;28;21009;-76
2022/08/03 13:05:50;;;;;;;0.70;0.20;;;33.00;99.90;;;;;;4978546;28;20447;-76
2022/08/03 13:08:19;;;;;;;0.70;0.10;;;32.90;99.90;;;;;;4987468;28;20991;-76
2022/08/03 13:10:48;;;;;;;1.00;0.53;;;33.10;99.90;;;;;;4993742;28;20457;-77
2022/08/03 13:13:16;;;;;;;0.80;0.50;;;33.10;99.90;;;;;;4993805;28;21012;-76
2022/08/03 13:15:45;;;;;;;0.77;0.33;;;33.00;99.90;;;;;;4983990;28;20465;-75
2022/08/03 13:18:14;;;;;;;0.70;0.20;;;33.00;99.90;;;;;;4974143;28;20482;-76
2022/08/03 13:20:44;;;;;;;1.80;1.33;;;33.00;99.90;;;;;;4974385;28;20512;-76
2022/08/03 13:23:12;;;;;;;0.70;0.10;;;33.00;99.90;;;;;;4974101;28;20558;-76
2022/08/03 13:25:49;;;;;;;0.70;0.10;;;33.00;99.90;;;;;;4974475;28;20450;-76
2022/08/03 13:28:22;;;;;;;0.70;0.20;;;33.00;99.90;;;;;;4980286;28;20492;-76
2022/08/03 13:30:53;;;;;;;0.70;0.20;;;;;;;;;;4993452;28;20488;-76